createdAt,value
2018-01-20T00:00:48.487Z,0.00
2018-01-20T00:01:48.474Z,0.00
2018-01-20T00:02:48.527Z,0.00
2018-01-20T00:03:48.476Z,0.00
2018-01-20T00:04:48.394Z,0.00
2018-01-20T00:05:49.335Z,0.00
2018-01-20T00:06:48.652Z,0.00
2018-01-20T00:07:48.371Z,0.00
2018-01-20T00:08:48.353Z,0.00
2018-01-20T00:09:48.415Z,0.00
2018-01-20T00:10:48.415Z,0.00
2018-01-20T00:11:48.269Z,0.00
2018-01-20T00:12:48.352Z,0.00
2018-01-20T00:13:53.395Z,0.00
2018-01-20T00:14:48.504Z,0.00
2018-01-20T00:15:48.238Z,0.00
2018-01-20T00:16:48.186Z,0.00
2018-01-20T00:17:48.162Z,0.00
2018-01-20T00:18:48.220Z,0.00
2018-01-20T00:19:48.872Z,0.00
2018-01-20T00:20:48.123Z,0.00
2018-01-20T00:21:48.092Z,0.00
2018-01-20T00:22:48.265Z,0.00
2018-01-20T00:56:18.593Z,0.00
2018-01-20T00:57:00.889Z,0.00
2018-01-20T00:58:01.992Z,0.00
2018-01-20T00:59:00.929Z,0.00
2018-01-20T01:00:00.958Z,0.00
2018-01-20T01:01:00.687Z,0.00
2018-01-20T01:02:00.815Z,0.00
2018-01-20T01:03:01.294Z,0.00
2018-01-20T01:04:01.533Z,0.00
2018-01-20T01:05:00.597Z,0.00
2018-01-20T01:06:01.183Z,0.00
2018-01-20T01:07:00.563Z,0.00
2018-01-20T01:08:00.598Z,0.00
2018-01-20T01:09:01.199Z,0.00
2018-01-20T01:10:02.203Z,0.00
2018-01-20T01:11:00.452Z,0.00
2018-01-20T01:12:00.410Z,0.00
2018-01-20T01:13:00.484Z,0.00
2018-01-20T01:14:00.377Z,0.00
2018-01-20T01:15:00.376Z,0.00
2018-01-20T01:16:00.346Z,0.00
2018-01-20T01:17:00.437Z,0.00
2018-01-20T01:18:00.647Z,0.00
2018-01-20T01:19:00.357Z,0.00
2018-01-20T01:20:00.276Z,0.00
2018-01-20T01:21:00.250Z,0.00
2018-01-20T01:22:00.291Z,0.00
2018-01-20T01:23:02.201Z,0.00
2018-01-20T01:24:01.183Z,0.00
2018-01-20T01:25:08.869Z,0.00
2018-01-20T01:26:00.762Z,0.00
2018-01-20T01:27:01.683Z,0.00
2018-01-20T01:28:00.155Z,0.00
2018-01-20T01:29:00.308Z,0.00
2018-01-20T01:30:00.103Z,0.00
2018-01-20T01:31:00.175Z,0.00
2018-01-20T01:32:00.305Z,0.00
2018-01-20T01:33:00.781Z,0.00
2018-01-20T01:34:00.045Z,0.00
2018-01-20T01:35:01.728Z,0.00
2018-01-20T01:35:59.971Z,0.00
2018-01-20T01:37:00.103Z,0.00
2018-01-20T01:37:59.952Z,0.00
2018-01-20T01:38:59.995Z,0.00
2018-01-20T01:40:00.789Z,0.00
2018-01-20T01:41:02.051Z,0.00
2018-01-20T01:41:59.861Z,0.00
2018-01-20T01:42:59.914Z,0.00
2018-01-20T01:43:59.827Z,0.00
2018-01-20T02:02:53.490Z,0.00
2018-01-20T02:03:47.115Z,0.00
2018-01-20T02:42:21.857Z,0.00
2018-01-20T02:43:13.483Z,0.00
2018-01-20T02:44:12.426Z,0.00
2018-01-20T02:45:14.417Z,0.00
2018-01-20T02:46:13.058Z,0.00
2018-01-20T02:47:12.491Z,0.00
2018-01-20T02:48:12.375Z,0.00
2018-01-20T02:49:14.670Z,0.00
2018-01-20T02:50:12.338Z,0.00
2018-01-20T02:51:12.551Z,0.00
2018-01-20T02:52:12.318Z,0.00
2018-01-20T02:53:17.103Z,0.00
2018-01-20T02:54:12.317Z,0.00
2018-01-20T02:55:12.321Z,0.00
2018-01-20T02:56:12.215Z,0.00
2018-01-20T02:57:12.187Z,0.00
2018-01-20T02:58:12.956Z,0.00
2018-01-20T02:59:12.325Z,0.00
2018-01-20T03:00:12.126Z,0.00
2018-01-20T03:01:12.677Z,0.00
2018-01-20T03:02:12.163Z,0.00
2018-01-20T03:03:12.059Z,0.00
2018-01-20T03:04:12.073Z,0.00
2018-01-20T03:05:12.469Z,0.00
2018-01-20T03:06:11.983Z,0.00
2018-01-20T03:07:11.995Z,0.00
2018-01-20T03:08:11.945Z,0.00
2018-01-20T03:09:12.071Z,0.00
2018-01-20T03:10:11.932Z,0.00
2018-01-20T03:11:12.288Z,0.00
2018-01-20T03:12:11.953Z,0.00
2018-01-20T03:13:12.791Z,0.00
2018-01-20T03:14:11.865Z,0.00
2018-01-20T03:15:11.836Z,0.00
2018-01-20T03:18:35.132Z,0.00
2018-01-20T03:19:56.184Z,0.00
2018-01-20T03:20:34.193Z,0.00
2018-01-20T03:21:34.229Z,0.00
2018-01-20T03:22:34.148Z,0.00
2018-01-20T03:23:36.165Z,0.00
2018-01-20T03:24:34.150Z,0.00
2018-01-20T03:25:35.084Z,0.00
2018-01-20T03:26:34.063Z,0.00
2018-01-20T03:27:34.116Z,0.00
2018-01-20T03:28:34.027Z,0.00
2018-01-20T03:29:34.405Z,0.00
2018-01-20T03:30:34.034Z,0.00
2018-01-20T03:31:34.039Z,0.00
2018-01-20T03:32:50.629Z,0.00
2018-01-20T03:33:44.597Z,0.00
2018-01-20T03:34:34.108Z,0.00
2018-01-20T03:35:34.620Z,0.00
2018-01-20T03:36:33.900Z,0.00
2018-01-20T03:37:34.039Z,0.00
2018-01-20T03:38:34.305Z,0.00
2018-01-20T03:39:33.921Z,0.00
2018-01-20T03:40:34.191Z,0.00
2018-01-20T03:41:34.100Z,0.00
2018-01-20T03:42:33.793Z,0.00
2018-01-20T03:43:33.811Z,0.00
2018-01-20T03:44:33.967Z,0.00
2018-01-20T03:45:33.808Z,0.00
2018-01-20T03:46:33.746Z,0.00
2018-01-20T03:47:33.756Z,0.00
2018-01-20T03:48:33.683Z,0.00
2018-01-20T03:49:34.584Z,0.00
2018-01-20T03:50:33.968Z,0.00
2018-01-20T03:51:34.647Z,0.00
2018-01-20T03:52:33.584Z,0.00
2018-01-20T03:53:33.579Z,0.00
2018-01-20T03:54:33.534Z,0.00
2018-01-20T03:55:33.548Z,0.00
2018-01-20T03:56:33.534Z,0.00
2018-01-20T03:57:33.504Z,0.00
2018-01-20T03:58:33.482Z,0.00
2018-01-20T03:59:35.282Z,0.00
2018-01-20T04:00:33.471Z,0.00
2018-01-20T04:01:33.448Z,0.00
2018-01-20T04:02:33.642Z,0.00
2018-01-20T04:03:33.373Z,0.00
2018-01-20T04:04:33.438Z,0.00
2018-01-20T04:05:33.358Z,0.00
2018-01-20T04:06:34.613Z,0.00
2018-01-20T04:07:34.169Z,0.00
2018-01-20T04:08:35.404Z,0.00
2018-01-20T04:09:33.496Z,0.00
2018-01-20T04:10:33.270Z,0.00
2018-01-20T04:11:34.842Z,0.00
2018-01-20T04:12:35.115Z,0.00
2018-01-20T04:13:33.269Z,0.00
2018-01-20T04:14:33.859Z,0.00
2018-01-20T04:15:33.166Z,0.00
2018-01-20T04:16:33.533Z,0.00
2018-01-20T04:17:33.150Z,0.00
2018-01-20T04:18:34.146Z,0.00
2018-01-20T04:19:33.789Z,0.00
2018-01-20T04:20:33.064Z,0.00
2018-01-20T04:21:33.699Z,0.00
2018-01-20T04:22:37.610Z,0.00
2018-01-20T04:23:33.346Z,0.00
2018-01-20T04:24:34.599Z,0.00
2018-01-20T04:25:32.968Z,0.00
2018-01-20T04:26:32.969Z,0.00
2018-01-20T04:27:33.215Z,0.00
2018-01-20T04:28:33.501Z,0.00
2018-01-20T04:29:33.674Z,0.00
2018-01-20T04:30:33.566Z,0.00
2018-01-20T04:31:34.593Z,0.00
2018-01-20T04:32:32.858Z,0.00
2018-01-20T04:33:51.451Z,0.00
2018-01-20T04:34:32.835Z,0.00
2018-01-20T04:35:32.792Z,0.00
2018-01-20T04:36:32.816Z,0.00
2018-01-20T04:37:32.889Z,0.00
2018-01-20T04:38:32.828Z,0.00
2018-01-20T04:39:33.015Z,0.00
2018-01-20T04:40:32.709Z,0.00
2018-01-20T04:41:32.728Z,0.00
2018-01-20T04:42:32.672Z,0.00
2018-01-20T04:43:34.081Z,0.00
2018-01-20T04:44:33.656Z,0.00
2018-01-20T04:45:32.758Z,0.00
2018-01-20T04:59:55.658Z,0.00
2018-01-20T05:00:55.619Z,0.00
2018-01-20T05:01:57.250Z,0.00
2018-01-20T05:02:55.552Z,0.00
2018-01-20T05:03:55.540Z,0.00
2018-01-20T05:04:55.539Z,0.00
2018-01-20T05:05:55.572Z,0.00
2018-01-20T05:06:55.500Z,0.00
2018-01-20T05:07:55.479Z,0.00
2018-01-20T05:08:56.353Z,0.00
2018-01-20T05:09:56.259Z,0.00
2018-01-20T05:10:55.396Z,0.00
2018-01-20T05:11:55.428Z,0.00
2018-01-20T05:12:55.368Z,0.00
2018-01-20T05:13:55.438Z,0.00
2018-01-20T05:14:55.325Z,0.00
2018-01-20T05:15:55.385Z,0.00
2018-01-20T05:16:55.305Z,0.00
2018-01-20T05:17:57.775Z,0.00
2018-01-20T05:18:55.274Z,0.00
2018-01-20T05:19:55.859Z,0.00
2018-01-20T05:20:55.255Z,0.00
2018-01-20T05:21:55.201Z,0.00
2018-01-20T05:22:55.253Z,0.00
2018-01-20T05:23:55.192Z,0.00
2018-01-20T05:24:55.189Z,0.00
2018-01-20T05:25:55.122Z,0.00
2018-01-20T05:26:55.435Z,0.00
2018-01-20T05:27:55.126Z,0.00
2018-01-20T05:28:55.198Z,0.00
2018-01-20T05:29:55.112Z,0.00
2018-01-20T05:30:55.086Z,0.00
2018-01-20T05:32:19.023Z,0.00
2018-01-20T05:32:56.784Z,0.00
2018-01-20T05:33:55.006Z,0.00
2018-01-20T05:34:55.275Z,0.00
2018-01-20T05:35:54.959Z,0.00
2018-01-20T05:36:56.821Z,0.00
2018-01-20T06:23:57.093Z,0.00
2018-01-20T06:24:25.118Z,0.00
2018-01-20T06:25:25.093Z,0.00
2018-01-20T06:26:25.077Z,0.00
2018-01-20T06:27:25.049Z,0.00
2018-01-20T06:28:26.655Z,0.00
2018-01-20T06:29:30.121Z,0.00
2018-01-20T06:30:25.095Z,0.00
2018-01-20T06:31:25.092Z,0.00
2018-01-20T06:32:24.966Z,0.00
2018-01-20T06:33:24.925Z,0.00
2018-01-20T06:34:25.223Z,0.00
2018-01-20T06:35:25.192Z,0.00
2018-01-20T06:36:24.980Z,0.00
2018-01-20T06:37:25.598Z,0.00
2018-01-20T06:38:25.644Z,0.00
2018-01-20T06:39:26.646Z,0.00
2018-01-20T06:40:24.819Z,0.00
2018-01-20T06:41:25.631Z,0.00
2018-01-20T06:42:24.742Z,0.00
2018-01-20T06:43:24.744Z,0.00
2018-01-20T06:44:24.889Z,0.00
2018-01-20T06:45:24.708Z,0.00
2018-01-20T06:46:24.818Z,0.00
2018-01-20T06:47:24.691Z,0.00
2018-01-20T06:50:50.279Z,0.00
2018-01-20T06:51:44.299Z,0.00
2018-01-20T06:52:32.170Z,0.00
2018-01-20T06:53:32.738Z,0.00
2018-01-20T07:11:04.462Z,12.00
2018-01-20T07:11:53.317Z,16.00
2018-01-20T07:12:53.308Z,12.00
2018-01-20T07:13:55.385Z,20.00
2018-01-20T07:14:53.321Z,24.00
2018-01-20T07:15:53.265Z,20.00
2018-01-20T07:16:53.954Z,24.00
2018-01-20T07:22:20.063Z,32.00
2018-01-20T07:23:20.065Z,32.00
2018-01-20T07:24:19.335Z,32.00
2018-01-20T07:27:38.089Z,44.00
2018-01-20T07:28:35.527Z,56.00
2018-01-20T07:33:19.267Z,68.00
2018-01-20T07:33:42.056Z,72.00
2018-01-20T07:34:28.071Z,68.00
2018-01-20T07:35:27.373Z,80.00
2018-01-20T08:14:04.915Z,604.00
2018-01-20T08:14:27.365Z,588.00
2018-01-20T08:15:28.857Z,584.00
2018-01-20T08:16:27.325Z,596.00
2018-01-20T08:17:27.338Z,584.00
2018-01-20T08:18:27.336Z,576.00
2018-01-20T08:19:27.298Z,772.00
2018-01-20T08:20:27.924Z,784.00
2018-01-20T08:21:27.252Z,784.00
2018-01-20T08:25:37.218Z,744.00
2018-01-20T08:26:26.898Z,700.00
2018-01-20T08:27:27.516Z,652.00
2018-01-20T08:28:28.381Z,728.00
2018-01-20T08:29:27.444Z,836.00
2018-01-20T08:30:28.320Z,884.00
2018-01-20T08:31:27.399Z,816.00
2018-01-20T08:32:28.213Z,668.00
2018-01-20T08:33:29.980Z,584.00
2018-01-20T08:34:38.401Z,660.00
2018-01-20T08:35:29.850Z,736.00
2018-01-20T08:54:48.768Z,2964.00
2018-01-20T08:55:45.316Z,3336.00
2018-01-20T08:56:45.966Z,2884.00
2018-01-20T08:57:45.361Z,2676.00
2018-01-20T08:58:45.246Z,2876.00
2018-01-20T08:59:45.219Z,3244.00
2018-01-20T09:00:46.471Z,3056.00
2018-01-20T09:01:45.201Z,3232.00
2018-01-20T09:02:45.186Z,3164.00
2018-01-20T09:03:45.250Z,3416.00
2018-01-20T09:04:45.148Z,3448.00
2018-01-20T09:05:45.134Z,3208.00
2018-01-20T09:06:45.129Z,2532.00
2018-01-20T09:07:45.088Z,2588.00
2018-01-20T09:08:45.049Z,2228.00
2018-01-20T09:09:48.640Z,1928.00
2018-01-20T09:10:45.073Z,2072.00
2018-01-20T09:11:45.073Z,2488.00
2018-01-20T09:12:45.134Z,3204.00
2018-01-20T09:13:45.128Z,2808.00
2018-01-20T09:14:45.021Z,2480.00
2018-01-20T09:15:44.981Z,2444.00
2018-01-20T09:16:45.026Z,2308.00
2018-01-20T09:17:44.926Z,2680.00
2018-01-20T09:18:44.865Z,3016.00
2018-01-20T09:22:52.888Z,3108.00
2018-01-20T09:23:31.859Z,3088.00
2018-01-20T09:24:31.830Z,2608.00
2018-01-20T09:25:32.106Z,4312.00
2018-01-20T09:26:31.826Z,5728.00
2018-01-20T09:27:32.715Z,5216.00
2018-01-20T09:28:31.756Z,3824.00
2018-01-20T09:29:32.416Z,2560.00
2018-01-20T09:30:31.798Z,2624.00
2018-01-20T09:31:31.715Z,2976.00
2018-01-20T09:32:31.772Z,3172.00
2018-01-20T09:33:32.282Z,3416.00
2018-01-20T09:34:31.696Z,3376.00
2018-01-20T09:35:31.634Z,2768.00
2018-01-20T09:36:33.736Z,3860.00
2018-01-20T09:37:31.821Z,3596.00
2018-01-20T09:38:31.716Z,2924.00
2018-01-20T09:39:32.421Z,2640.00
2018-01-20T09:40:32.865Z,2288.00
2018-01-20T09:41:31.524Z,2328.00
2018-01-20T09:42:31.531Z,2444.00
2018-01-20T09:43:31.524Z,2364.00
2018-01-20T09:44:31.543Z,2144.00
2018-01-20T09:45:31.631Z,2440.00
2018-01-20T09:46:31.446Z,2244.00
2018-01-20T09:47:31.426Z,2496.00
2018-01-20T09:48:31.422Z,2480.00
2018-01-20T09:49:32.168Z,1888.00
2018-01-20T09:50:31.366Z,1908.00
2018-01-20T09:51:31.339Z,1772.00
2018-01-20T09:52:31.639Z,1524.00
2018-01-20T09:53:31.850Z,1728.00
2018-01-20T09:54:31.334Z,1792.00
2018-01-20T09:55:31.319Z,2508.00
2018-01-20T09:56:32.649Z,2384.00
2018-01-20T09:57:36.177Z,2512.00
2018-01-20T09:58:32.172Z,2660.00
2018-01-20T09:59:31.274Z,2628.00
2018-01-20T10:00:33.111Z,2336.00
2018-01-20T10:05:39.794Z,1748.00
2018-01-20T10:06:42.644Z,2140.00
2018-01-20T10:07:40.483Z,2524.00
2018-01-20T10:08:39.758Z,2980.00
2018-01-20T10:09:39.907Z,3612.00
2018-01-20T10:10:39.932Z,3372.00
2018-01-20T10:11:39.715Z,4212.00
2018-01-20T10:12:39.704Z,3656.00
2018-01-20T10:13:39.726Z,3348.00
2018-01-20T10:14:39.719Z,3484.00
2018-01-20T10:15:39.917Z,3852.00
2018-01-20T10:16:39.712Z,3116.00
2018-01-20T10:17:39.634Z,2764.00
2018-01-20T10:18:39.665Z,3040.00
2018-01-20T10:19:40.798Z,2604.00
2018-01-20T10:23:58.457Z,2248.00
2018-01-20T10:24:58.420Z,2144.00
2018-01-20T10:29:23.816Z,1784.00
2018-01-20T10:30:23.773Z,2300.00
2018-01-20T10:31:23.919Z,2532.00
2018-01-20T10:32:23.797Z,2368.00
2018-01-20T10:33:47.566Z,2456.00
2018-01-20T10:34:49.599Z,2072.00
2018-01-20T10:35:23.926Z,2220.00
2018-01-20T10:36:23.779Z,2304.00
2018-01-20T10:37:23.655Z,2236.00
2018-01-20T10:38:25.691Z,1812.00
2018-01-20T10:39:24.230Z,1732.00
2018-01-20T10:40:23.646Z,1672.00
2018-01-20T10:41:23.571Z,2180.00
2018-01-20T10:42:23.593Z,3632.00
2018-01-20T10:43:34.238Z,3692.00
2018-01-20T10:44:23.612Z,3296.00
2018-01-20T10:45:23.500Z,3216.00
2018-01-20T10:46:23.488Z,3220.00
2018-01-20T10:47:23.534Z,3140.00
2018-01-20T10:48:23.454Z,2544.00
2018-01-20T10:49:23.430Z,2776.00
2018-01-20T10:50:24.243Z,4472.00
2018-01-20T10:51:23.457Z,4088.00
2018-01-20T10:52:23.367Z,4284.00
2018-01-20T10:53:31.301Z,4848.00
2018-01-20T10:54:23.532Z,5792.00
2018-01-20T10:55:23.327Z,3312.00
2018-01-20T10:56:24.237Z,2552.00
2018-01-20T10:57:23.314Z,2360.00
2018-01-20T10:58:23.267Z,2884.00
2018-01-20T10:59:23.312Z,3328.00
2018-01-20T11:00:23.291Z,3584.00
2018-01-20T11:01:23.202Z,3912.00
2018-01-20T11:02:23.210Z,5328.00
2018-01-20T11:03:23.257Z,5276.00
2018-01-20T11:04:23.277Z,5188.00
2018-01-20T11:05:23.226Z,5492.00
2018-01-20T11:06:25.136Z,4136.00
2018-01-20T11:07:23.123Z,4048.00
2018-01-20T11:08:23.101Z,3932.00
2018-01-20T11:09:23.085Z,4812.00
2018-01-20T11:10:23.769Z,5112.00
2018-01-20T11:11:30.053Z,4344.00
2018-01-20T11:12:23.018Z,4208.00
2018-01-20T11:13:23.079Z,3412.00
2018-01-20T11:14:44.191Z,3728.00
2018-01-20T11:15:23.070Z,4372.00
2018-01-20T11:16:23.102Z,4100.00
2018-01-20T11:17:23.003Z,3968.00
2018-01-20T11:18:23.070Z,4264.00
2018-01-20T11:26:48.324Z,4504.00
2018-01-20T11:27:50.781Z,4588.00
2018-01-20T11:31:19.242Z,4212.00
2018-01-20T11:37:18.941Z,4228.00
2018-01-20T11:38:17.213Z,4504.00
2018-01-20T11:39:10.800Z,4680.00
2018-01-20T11:40:10.740Z,5104.00
2018-01-20T11:56:24.923Z,4876.00
2018-01-20T11:57:21.517Z,5556.00
2018-01-20T11:58:21.481Z,5556.00
2018-01-20T11:59:21.585Z,5388.00
2018-01-20T12:00:21.768Z,5348.00
2018-01-20T12:01:21.504Z,5464.00
2018-01-20T12:02:21.495Z,5468.00
2018-01-20T12:03:21.618Z,5556.00
2018-01-20T12:04:21.518Z,5736.00
2018-01-20T12:05:21.369Z,5880.00
2018-01-20T12:06:21.353Z,5800.00
2018-01-20T12:07:21.357Z,5612.00
2018-01-20T12:08:21.330Z,5672.00
2018-01-20T12:09:21.562Z,5920.00
2018-01-20T12:10:21.396Z,6060.00
2018-01-20T12:11:21.420Z,5992.00
2018-01-20T12:12:21.319Z,5992.00
2018-01-20T12:13:21.236Z,6024.00
2018-01-20T12:14:21.213Z,6012.00
2018-01-20T12:15:21.336Z,5988.00
2018-01-20T12:16:21.861Z,5980.00
2018-01-20T12:17:21.183Z,6020.00
2018-01-20T12:18:21.170Z,6068.00
2018-01-20T12:19:21.138Z,6108.00
2018-01-20T12:20:21.154Z,6140.00
2018-01-20T12:21:21.368Z,6152.00
2018-01-20T12:22:21.084Z,6184.00
2018-01-20T12:23:22.042Z,6220.00
2018-01-20T12:24:21.091Z,6240.00
2018-01-20T12:25:21.925Z,6220.00
2018-01-20T12:26:22.362Z,6236.00
2018-01-20T12:27:22.039Z,6264.00
2018-01-20T12:28:21.568Z,6308.00
2018-01-20T12:29:21.144Z,6424.00
2018-01-20T12:30:21.032Z,6456.00
2018-01-20T12:31:20.959Z,6516.00
2018-01-20T12:58:47.020Z,5096.00
2018-01-20T12:59:43.787Z,5052.00
2018-01-20T13:05:48.780Z,5404.00
2018-01-20T13:06:48.774Z,5292.00
2018-01-20T13:07:49.465Z,5116.00
2018-01-20T13:51:02.688Z,1180.00
2018-01-20T13:52:01.705Z,1044.00
2018-01-20T13:53:01.692Z,1044.00
2018-01-20T13:54:02.619Z,1120.00
2018-01-20T13:55:16.956Z,1320.00
2018-01-20T13:56:01.641Z,1456.00
2018-01-20T13:57:01.646Z,1416.00
2018-01-20T13:58:01.664Z,1492.00
2018-01-20T13:59:02.390Z,1504.00
2018-01-20T14:00:01.630Z,1480.00
2018-01-20T14:01:02.151Z,1524.00
2018-01-20T14:02:01.617Z,1588.00
2018-01-20T14:03:01.691Z,1580.00
2018-01-20T14:18:30.172Z,844.00
2018-01-20T14:19:10.624Z,844.00
2018-01-20T17:37:20.292Z,0.00
2018-01-20T17:37:53.192Z,0.00
2018-01-20T17:38:53.221Z,0.00
2018-01-20T17:39:53.141Z,0.00
2018-01-20T17:40:53.246Z,0.00
2018-01-20T17:41:53.137Z,0.00
2018-01-20T17:42:53.750Z,0.00
2018-01-20T17:43:53.088Z,0.00
2018-01-20T17:44:53.055Z,0.00
2018-01-20T17:45:53.035Z,0.00
2018-01-20T17:46:53.041Z,0.00
2018-01-20T17:47:53.017Z,0.00
2018-01-20T17:48:53.065Z,0.00
2018-01-20T17:49:52.988Z,0.00
2018-01-20T17:50:52.975Z,0.00
2018-01-20T17:51:52.957Z,0.00
2018-01-20T17:52:52.933Z,0.00
2018-01-20T17:53:52.901Z,0.00
2018-01-20T17:54:52.919Z,0.00
2018-01-20T17:55:52.905Z,0.00
2018-01-20T17:56:52.876Z,0.00
2018-01-20T17:57:52.896Z,0.00
2018-01-20T17:58:52.834Z,0.00
2018-01-20T17:59:52.808Z,0.00
2018-01-20T18:00:53.767Z,0.00
2018-01-20T18:01:52.779Z,0.00
2018-01-20T18:02:52.752Z,0.00
2018-01-20T18:03:52.766Z,0.00
2018-01-20T18:04:52.720Z,0.00
2018-01-20T18:05:52.727Z,0.00
2018-01-20T18:06:52.699Z,0.00
2018-01-20T18:07:52.702Z,0.00
2018-01-20T18:08:52.687Z,0.00
2018-01-20T18:09:52.653Z,0.00
2018-01-20T18:10:52.611Z,0.00
2018-01-20T18:11:52.598Z,0.00
2018-01-20T18:12:52.591Z,0.00
2018-01-20T18:13:52.600Z,0.00
2018-01-20T18:14:52.609Z,0.00
2018-01-20T18:15:52.535Z,0.00
2018-01-20T18:16:52.559Z,0.00
2018-01-20T18:17:52.507Z,0.00
2018-01-20T18:18:52.499Z,0.00
2018-01-20T18:19:52.466Z,0.00
2018-01-20T18:20:52.753Z,0.00
2018-01-20T18:21:52.444Z,0.00
2018-01-20T18:22:52.445Z,0.00
2018-01-20T18:23:52.414Z,0.00
2018-01-20T18:24:52.385Z,0.00
2018-01-20T18:25:52.400Z,0.00
2018-01-20T18:26:52.367Z,0.00
2018-01-20T18:27:52.332Z,0.00
2018-01-20T18:28:52.344Z,0.00
2018-01-20T18:29:52.309Z,0.00
2018-01-20T18:30:52.297Z,0.00
2018-01-20T18:31:52.672Z,0.00
2018-01-20T18:32:52.264Z,0.00
2018-01-20T18:33:52.247Z,0.00
2018-01-20T18:34:52.224Z,0.00
2018-01-20T18:35:52.392Z,0.00
2018-01-20T18:36:52.190Z,0.00
2018-01-20T18:37:52.204Z,0.00
2018-01-20T18:38:52.149Z,0.00
2018-01-20T18:39:52.148Z,0.00
2018-01-20T18:40:52.159Z,0.00
2018-01-20T18:41:52.100Z,0.00
2018-01-20T18:42:52.085Z,0.00
2018-01-20T18:43:52.075Z,0.00
2018-01-20T18:44:52.059Z,0.00
2018-01-20T18:45:52.042Z,0.00
2018-01-20T18:46:52.033Z,0.00
2018-01-20T18:47:52.013Z,0.00
2018-01-20T18:48:51.994Z,0.00
2018-01-20T18:49:51.953Z,0.00
2018-01-20T18:50:52.013Z,0.00
2018-01-20T18:51:51.939Z,0.00
2018-01-20T18:52:52.024Z,0.00
2018-01-20T18:53:51.916Z,0.00
2018-01-20T18:54:51.881Z,0.00
2018-01-20T18:55:51.868Z,0.00
2018-01-20T18:56:51.859Z,0.00
2018-01-20T18:57:51.831Z,0.00
2018-01-20T18:58:51.833Z,0.00
2018-01-20T18:59:52.008Z,0.00
2018-01-20T19:00:51.789Z,0.00
2018-01-20T19:01:51.774Z,0.00
2018-01-20T19:02:51.812Z,0.00
2018-01-20T19:03:51.747Z,0.00
2018-01-20T19:04:51.717Z,0.00
2018-01-20T19:05:51.722Z,0.00
2018-01-20T19:06:51.697Z,0.00
2018-01-20T19:07:51.677Z,0.00
2018-01-20T19:08:51.668Z,0.00
2018-01-20T19:09:51.626Z,0.00
2018-01-20T19:10:51.610Z,0.00
2018-01-20T19:11:51.588Z,0.00
2018-01-20T19:12:51.675Z,0.00
2018-01-20T19:13:51.558Z,0.00
2018-01-20T19:14:51.539Z,0.00
2018-01-20T19:15:51.533Z,0.00
2018-01-20T19:16:51.520Z,0.00
2018-01-20T19:17:51.503Z,0.00
2018-01-20T19:18:51.574Z,0.00
2018-01-20T19:19:51.463Z,0.00
2018-01-20T19:20:51.444Z,0.00
2018-01-20T19:21:51.435Z,0.00
2018-01-20T19:22:51.409Z,0.00
2018-01-20T19:23:51.435Z,0.00
2018-01-20T19:24:51.433Z,0.00
2018-01-20T19:25:51.356Z,0.00
2018-01-20T19:26:51.333Z,0.00
2018-01-20T19:27:51.319Z,0.00
2018-01-20T19:28:51.306Z,0.00
2018-01-20T19:29:56.523Z,0.00
2018-01-20T19:30:51.328Z,0.00
2018-01-20T19:31:51.266Z,0.00
2018-01-20T19:32:51.239Z,0.00
2018-01-20T19:33:51.238Z,0.00
2018-01-20T19:34:51.207Z,0.00
2018-01-20T19:35:51.253Z,0.00
2018-01-20T19:36:51.158Z,0.00
2018-01-20T19:37:51.162Z,0.00
2018-01-20T19:38:51.133Z,0.00
2018-01-20T19:39:51.150Z,0.00
2018-01-20T19:40:51.120Z,0.00
2018-01-20T19:41:51.136Z,0.00
2018-01-20T19:42:51.084Z,0.00
2018-01-20T19:43:51.074Z,0.00
2018-01-20T19:44:51.057Z,0.00
2018-01-20T19:45:51.013Z,0.00
2018-01-20T19:46:51.013Z,0.00
2018-01-20T19:47:51.006Z,0.00
2018-01-20T19:48:50.963Z,0.00
2018-01-20T19:49:50.956Z,0.00
2018-01-20T19:50:50.917Z,0.00
2018-01-20T19:51:50.912Z,0.00
2018-01-20T19:52:50.938Z,0.00
2018-01-20T19:53:50.871Z,0.00
2018-01-20T19:54:50.866Z,0.00
2018-01-20T19:55:50.850Z,0.00
2018-01-20T19:56:50.830Z,0.00
2018-01-20T19:57:50.858Z,0.00
2018-01-20T19:58:50.810Z,0.00
2018-01-20T19:59:50.783Z,0.00
2018-01-20T20:00:50.769Z,0.00
2018-01-20T20:01:50.747Z,0.00
2018-01-20T20:02:50.779Z,0.00
2018-01-20T20:03:50.715Z,0.00
2018-01-20T20:04:50.686Z,0.00
2018-01-20T20:05:50.696Z,0.00
2018-01-20T20:06:50.659Z,0.00
2018-01-20T20:07:50.748Z,0.00
2018-01-20T20:08:50.631Z,0.00
2018-01-20T20:09:50.637Z,0.00
2018-01-20T20:10:50.594Z,0.00
2018-01-20T20:11:50.563Z,0.00
2018-01-20T20:12:50.548Z,0.00
2018-01-20T20:13:50.621Z,0.00
2018-01-20T20:14:50.544Z,0.00
2018-01-20T20:15:50.510Z,0.00
2018-01-20T20:16:50.478Z,0.00
2018-01-20T20:17:50.480Z,0.00
2018-01-20T20:18:50.485Z,0.00
2018-01-20T20:19:50.454Z,0.00
2018-01-20T20:20:50.420Z,0.00
2018-01-20T20:21:50.455Z,0.00
2018-01-20T20:22:50.403Z,0.00
2018-01-20T20:23:50.386Z,0.00
2018-01-20T20:24:50.374Z,0.00
2018-01-20T20:25:50.341Z,0.00
2018-01-20T20:26:50.324Z,0.00
2018-01-20T20:27:50.301Z,0.00
2018-01-20T20:28:50.300Z,0.00
2018-01-20T20:29:50.260Z,0.00
2018-01-20T20:30:50.274Z,0.00
2018-01-20T20:31:50.259Z,0.00
2018-01-20T20:32:50.268Z,0.00
2018-01-20T20:33:50.254Z,0.00
2018-01-20T20:34:50.207Z,0.00
2018-01-20T20:35:50.175Z,0.00
2018-01-20T20:36:50.174Z,0.00
2018-01-20T20:37:50.127Z,0.00
2018-01-20T20:38:50.112Z,0.00
2018-01-20T20:39:50.127Z,0.00
2018-01-20T20:40:50.093Z,0.00
2018-01-20T20:41:50.064Z,0.00
2018-01-20T20:42:50.053Z,0.00
2018-01-20T20:43:50.025Z,0.00
2018-01-20T20:44:50.072Z,0.00
2018-01-20T20:45:49.999Z,0.00
2018-01-20T20:46:49.985Z,0.00
2018-01-20T20:47:49.966Z,0.00
2018-01-20T20:48:49.974Z,0.00
2018-01-20T20:49:49.933Z,0.00
2018-01-20T20:50:49.947Z,0.00
2018-01-20T20:51:49.880Z,0.00
2018-01-20T20:52:49.876Z,0.00
2018-01-20T20:53:49.861Z,0.00
2018-01-20T20:54:49.846Z,0.00
2018-01-20T20:55:49.850Z,0.00
2018-01-20T20:56:49.825Z,0.00
2018-01-20T20:57:49.827Z,0.00
2018-01-20T20:58:49.782Z,0.00
2018-01-20T20:59:49.777Z,0.00
2018-01-20T21:00:49.789Z,0.00
2018-01-20T21:01:49.726Z,0.00
2018-01-20T21:02:49.710Z,0.00
2018-01-20T21:03:49.687Z,0.00
2018-01-20T21:04:49.692Z,0.00
2018-01-20T21:05:49.656Z,0.00
2018-01-20T21:06:49.644Z,0.00
2018-01-20T21:07:49.639Z,0.00
2018-01-20T21:08:49.594Z,0.00
2018-01-20T21:09:49.583Z,0.00
2018-01-20T21:10:49.614Z,0.00
2018-01-20T21:11:49.543Z,0.00
2018-01-20T21:12:49.546Z,0.00
2018-01-20T21:13:49.505Z,0.00
2018-01-20T21:14:49.496Z,0.00
2018-01-20T21:15:49.473Z,0.00
2018-01-20T21:16:49.503Z,0.00
2018-01-20T21:17:49.451Z,0.00
2018-01-20T21:18:49.446Z,0.00
2018-01-20T21:19:49.417Z,0.00
2018-01-20T21:20:49.395Z,0.00
2018-01-20T21:21:49.368Z,0.00
2018-01-20T21:22:49.420Z,0.00
2018-01-20T21:23:49.338Z,0.00
2018-01-20T21:24:49.357Z,0.00
2018-01-20T21:25:49.332Z,0.00
2018-01-20T21:26:49.303Z,0.00
2018-01-20T21:27:49.281Z,0.00
2018-01-20T21:28:49.322Z,0.00
2018-01-20T21:29:49.244Z,0.00
2018-01-20T21:30:49.224Z,0.00
2018-01-20T21:31:49.198Z,0.00
2018-01-20T21:32:49.200Z,0.00
2018-01-20T21:33:49.237Z,0.00
2018-01-20T21:34:49.166Z,0.00
2018-01-20T21:35:49.157Z,0.00
2018-01-20T21:36:49.119Z,0.00
2018-01-20T21:37:49.117Z,0.00
2018-01-20T21:38:49.091Z,0.00
2018-01-20T21:39:49.155Z,0.00
2018-01-20T21:40:49.044Z,0.00
2018-01-20T21:41:49.048Z,0.00
2018-01-20T21:42:49.017Z,0.00
2018-01-20T21:43:49.018Z,0.00
2018-01-20T21:44:49.011Z,0.00
2018-01-20T21:45:48.980Z,0.00
2018-01-20T21:46:48.953Z,0.00
2018-01-20T21:47:48.934Z,0.00
2018-01-20T21:48:48.924Z,0.00
2018-01-20T21:49:48.922Z,0.00
2018-01-20T21:50:48.950Z,0.00
2018-01-20T21:51:48.857Z,0.00
2018-01-20T21:52:48.846Z,0.00
2018-01-20T21:53:48.825Z,0.00
2018-01-20T21:54:48.833Z,0.00
2018-01-20T21:55:48.816Z,0.00
2018-01-20T21:56:48.819Z,0.00
2018-01-20T21:57:48.773Z,0.00
2018-01-20T21:58:48.749Z,0.00
2018-01-20T21:59:48.732Z,0.00
2018-01-20T22:00:48.719Z,0.00
2018-01-20T22:01:48.697Z,0.00
2018-01-20T22:02:48.733Z,0.00
2018-01-20T22:03:48.653Z,0.00
2018-01-20T22:04:48.647Z,0.00
2018-01-20T22:05:48.650Z,0.00
2018-01-20T22:06:48.609Z,0.00
2018-01-20T22:07:48.581Z,0.00
2018-01-20T22:08:48.593Z,0.00
2018-01-20T22:09:48.569Z,0.00
2018-01-20T22:10:48.555Z,0.00
2018-01-20T22:11:48.706Z,0.00
2018-01-20T22:12:48.511Z,0.00
2018-01-20T22:13:48.496Z,0.00
2018-01-20T22:14:48.476Z,0.00
2018-01-20T22:15:48.439Z,0.00
2018-01-20T22:16:48.430Z,0.00
2018-01-20T22:17:48.640Z,0.00
2018-01-20T22:18:48.418Z,0.00
2018-01-20T22:19:48.401Z,0.00
2018-01-20T22:20:48.359Z,0.00